KMSO

Missoula International Airport

Missoula, Montana, USA
METAR KMSO 180253Z 20003KT 10SM FEW040 SCT050 OVC065 M04/M06 A3001 RMK AO2 SLP205 T10391061 58015
Observed Flight Rules
Dec-18 @ 02:53 UTC (11 minutes ago) Visual Flight Rules
Wind Visibility Clouds
200° at 3 knots 10 miles
  • Few at 4,000' AGL
  • Scattered at 5,000' AGL
  • Overcast at 6,500' AGL
Temperatures Readings
Current -4°C / 25°F
Dewpoint -6°C / 21°F
Humidity 86%
Altimeter 30.01" Hg
Pressure 1020.5 hPa
Elevation 975
METAR KMSO 180253Z 20003KT 10SM FEW040 SCT050 OVC065 M04/M06 A3001 RMK AO2 SLP205 T10391061 58015
Observed Flight Rules
Dec-18 @ 02:53 UTC
(11 minutes ago)
VFR
Wind Visibility
200° at 3 knots 10 miles
Clouds
  • Few at 4,000' AGL
  • Scattered at 5,000' AGL
  • Overcast at 6,500' AGL
Temperature Dewpoint
-4°C / 25°F -6°C / 21°F
Humidity Altimeter Pressure
86% 30.01" Hg 1020.5 hPa